createdAt,value
2023-04-17T00:01:55.916Z,7.50
2023-04-17T00:04:24.474Z,7.90
2023-04-17T00:06:54.132Z,8.90
2023-04-17T00:09:22.547Z,9.20
2023-04-17T00:11:50.919Z,9.00
2023-04-17T00:14:19.168Z,8.00
2023-04-17T00:16:47.656Z,7.70
2023-04-17T00:19:16.637Z,8.10
2023-04-17T00:21:44.866Z,8.80
2023-04-17T00:24:13.726Z,9.00
2023-04-17T00:26:42.518Z,9.30
2023-04-17T00:29:11.289Z,7.70
2023-04-17T00:31:40.259Z,7.50
2023-04-17T00:34:08.490Z,8.00
2023-04-17T00:36:36.767Z,8.50
2023-04-17T00:39:05.279Z,9.20
2023-04-17T00:41:35.940Z,9.00
2023-04-17T00:44:04.438Z,8.00
2023-04-17T00:46:32.922Z,7.90
2023-04-17T00:49:01.614Z,7.00
2023-04-17T00:51:31.938Z,7.70
2023-04-17T00:54:00.448Z,8.50
2023-04-17T00:56:29.967Z,8.80
2023-04-17T00:58:58.553Z,7.30
2023-04-17T01:01:27.052Z,8.30
2023-04-17T01:03:56.124Z,6.60
2023-04-17T01:06:24.612Z,8.60
2023-04-17T01:08:53.146Z,7.90
2023-04-17T01:11:22.278Z,8.00
2023-04-17T01:13:51.215Z,8.90
2023-04-17T01:16:20.933Z,8.20
2023-04-17T01:18:49.556Z,7.00
2023-04-17T01:21:18.273Z,7.00
2023-04-17T01:23:50.256Z,7.80
2023-04-17T01:26:25.033Z,11.20
2023-04-17T01:28:57.616Z,9.00
2023-04-17T01:31:26.517Z,8.80
2023-04-17T01:33:55.334Z,7.50
2023-04-17T01:36:23.693Z,7.60
2023-04-17T01:38:52.006Z,6.60
2023-04-17T01:41:20.227Z,7.20
2023-04-17T01:43:48.688Z,7.50
2023-04-17T01:46:17.554Z,7.70
2023-04-17T01:48:46.084Z,7.30
2023-04-17T01:51:15.041Z,7.60
2023-04-17T01:53:43.522Z,7.40
2023-04-17T01:56:14.008Z,6.50
2023-04-17T01:58:43.552Z,6.20
2023-04-17T02:01:11.736Z,7.50
2023-04-17T02:03:40.012Z,7.20
2023-04-17T02:06:08.646Z,8.00
2023-04-17T02:08:38.237Z,7.50
2023-04-17T02:11:06.472Z,7.30
2023-04-17T02:13:34.957Z,6.50
2023-04-17T02:16:04.893Z,7.20
2023-04-17T02:18:33.468Z,7.50
2023-04-17T02:21:02.045Z,7.10
2023-04-17T02:23:31.035Z,7.90
2023-04-17T02:25:59.203Z,7.70
2023-04-17T02:28:27.687Z,6.80
2023-04-17T02:30:56.080Z,6.70
2023-04-17T02:33:24.752Z,6.90
2023-04-17T02:35:54.207Z,7.10
2023-04-17T02:38:25.908Z,7.70
2023-04-17T02:40:54.301Z,6.40
2023-04-17T02:43:22.672Z,7.20
2023-04-17T02:45:51.707Z,7.20
2023-04-17T02:48:20.162Z,7.10
2023-04-17T02:50:48.849Z,6.80
2023-04-17T02:53:19.865Z,6.60
2023-04-17T02:55:48.354Z,6.50
2023-04-17T02:58:17.549Z,6.60
2023-04-17T03:00:46.055Z,7.00
2023-04-17T03:03:17.596Z,6.50
2023-04-17T03:05:46.073Z,7.10
2023-04-17T03:08:14.883Z,6.70
2023-04-17T03:10:47.946Z,6.70
2023-04-17T03:13:16.963Z,6.70
2023-04-17T03:15:45.216Z,6.90
2023-04-17T03:18:13.799Z,6.80
2023-04-17T03:20:42.182Z,7.00
2023-04-17T03:23:11.623Z,6.90
2023-04-17T03:25:40.030Z,6.60
2023-04-17T03:28:09.175Z,7.50
2023-04-17T03:30:37.630Z,7.00
2023-04-17T03:33:07.744Z,6.50
2023-04-17T03:35:37.729Z,7.30
2023-04-17T03:38:08.934Z,7.00
2023-04-17T03:40:37.304Z,6.70
2023-04-17T03:43:06.790Z,6.60
2023-04-17T03:45:37.487Z,5.80
2023-04-17T03:48:06.348Z,6.70
2023-04-17T03:50:34.915Z,7.00
2023-04-17T03:53:03.252Z,6.90
2023-04-17T03:55:32.244Z,6.60
2023-04-17T03:58:01.541Z,6.20
2023-04-17T04:00:32.110Z,6.00
2023-04-17T04:03:02.716Z,6.10
2023-04-17T04:05:38.541Z,6.90
2023-04-17T04:08:08.471Z,6.50
2023-04-17T04:10:45.167Z,6.70
2023-04-17T04:13:16.759Z,6.10
2023-04-17T04:15:49.613Z,6.00
2023-04-17T04:18:20.881Z,6.20
2023-04-17T04:20:49.562Z,6.60
2023-04-17T04:23:25.293Z,6.50
2023-04-17T04:25:57.096Z,6.10
2023-04-17T04:28:30.577Z,5.70
2023-04-17T04:30:59.016Z,6.40
2023-04-17T04:33:30.900Z,5.30
2023-04-17T04:36:01.824Z,5.90
2023-04-17T04:38:31.513Z,5.80
2023-04-17T04:41:10.494Z,5.70
2023-04-17T04:43:40.256Z,5.40
2023-04-17T04:46:11.100Z,4.80
2023-04-17T04:48:44.601Z,5.20
2023-04-17T04:51:13.724Z,5.60
2023-04-17T04:53:42.382Z,5.80
2023-04-17T04:56:12.191Z,5.00
2023-04-17T04:58:40.743Z,4.40
2023-04-17T05:01:09.209Z,4.70
2023-04-17T05:03:41.642Z,4.60
2023-04-17T05:06:11.660Z,5.00
2023-04-17T05:08:45.330Z,4.70
2023-04-17T05:11:16.840Z,4.40
2023-04-17T05:13:45.486Z,4.20
2023-04-17T05:16:18.343Z,5.40
2023-04-17T05:18:48.431Z,5.20
2023-04-17T05:21:20.076Z,4.70
2023-04-17T05:23:50.907Z,4.20
2023-04-17T05:26:22.373Z,3.20
2023-04-17T05:28:54.173Z,4.00
2023-04-17T05:31:25.388Z,3.80
2023-04-17T05:33:53.752Z,4.20
2023-04-17T05:36:22.660Z,4.50
2023-04-17T05:38:51.436Z,3.80
2023-04-17T05:41:19.816Z,3.90
2023-04-17T05:43:48.289Z,3.00
2023-04-17T05:46:21.998Z,3.30
2023-04-17T05:48:50.368Z,3.10
2023-04-17T05:51:19.061Z,3.50
2023-04-17T05:53:49.111Z,3.30
2023-04-17T05:56:17.457Z,2.90
2023-04-17T05:58:46.348Z,2.70
2023-04-17T06:01:18.382Z,3.10
2023-04-17T06:06:21.728Z,2.90
2023-04-17T06:08:50.357Z,2.90
2023-04-17T06:11:18.694Z,3.10
2023-04-17T06:13:47.786Z,2.60
2023-04-17T06:16:17.146Z,3.50
2023-04-17T06:18:47.668Z,2.70
2023-04-17T06:21:16.515Z,3.20
2023-04-17T06:23:44.837Z,2.80
2023-04-17T06:26:13.154Z,2.40
2023-04-17T06:28:41.395Z,2.90
2023-04-17T06:31:10.878Z,2.50
2023-04-17T06:33:40.815Z,2.50
2023-04-17T06:36:11.144Z,2.30
2023-04-17T06:38:47.401Z,2.70
2023-04-17T06:41:17.741Z,2.50
2023-04-17T06:43:46.250Z,2.50
2023-04-17T06:46:15.954Z,3.10
2023-04-17T06:48:44.408Z,2.60
2023-04-17T06:51:12.985Z,2.50
2023-04-17T06:53:41.467Z,2.00
2023-04-17T06:56:12.205Z,2.10
2023-04-17T06:58:44.586Z,2.20
2023-04-17T07:01:13.864Z,2.50
2023-04-17T07:03:42.507Z,2.10
2023-04-17T07:06:11.072Z,2.10
2023-04-17T07:08:39.564Z,2.10
2023-04-17T07:11:07.768Z,1.90
2023-04-17T07:13:36.575Z,1.80
2023-04-17T07:16:06.992Z,2.30
2023-04-17T07:18:37.708Z,2.40
2023-04-17T07:21:06.262Z,2.20
2023-04-17T07:23:35.916Z,2.30
2023-04-17T07:26:04.147Z,2.00
2023-04-17T07:28:33.057Z,2.00
2023-04-17T07:31:01.444Z,2.30
2023-04-17T07:33:29.997Z,1.90
2023-04-17T07:35:58.397Z,2.40
2023-04-17T07:38:27.388Z,2.50
2023-04-17T07:40:57.240Z,2.50
2023-04-17T07:43:27.279Z,2.70
2023-04-17T07:45:56.452Z,2.70
2023-04-17T07:48:24.943Z,3.10
2023-04-17T07:51:00.370Z,3.00
2023-04-17T07:53:29.496Z,2.80
2023-04-17T07:55:58.587Z,2.80
2023-04-17T07:58:27.456Z,2.80
2023-04-17T08:00:55.753Z,2.50
2023-04-17T08:03:24.826Z,2.60
2023-04-17T08:05:54.346Z,2.40
2023-04-17T08:08:24.022Z,2.40
2023-04-17T08:10:52.726Z,2.30
2023-04-17T08:13:21.225Z,2.80
2023-04-17T08:15:49.351Z,2.30
2023-04-17T08:18:17.751Z,2.80
2023-04-17T08:20:46.166Z,2.60
2023-04-17T08:23:14.398Z,2.70
2023-04-17T08:25:42.617Z,2.20
2023-04-17T08:29:19.775Z,2.20
2023-04-17T08:31:48.460Z,2.20
2023-04-17T08:34:18.314Z,2.10
2023-04-17T08:36:48.002Z,2.20
2023-04-17T08:39:17.083Z,2.70
2023-04-17T08:41:51.395Z,2.10
2023-04-17T08:44:20.470Z,2.20
2023-04-17T08:46:49.726Z,2.30
2023-04-17T08:49:18.076Z,2.20
2023-04-17T08:51:47.475Z,2.00
2023-04-17T08:54:15.956Z,2.00
2023-04-17T08:56:44.233Z,2.10
2023-04-17T08:59:12.632Z,2.30
2023-04-17T09:02:04.006Z,2.40
2023-04-17T09:04:38.699Z,2.10
2023-04-17T09:07:07.456Z,2.20
2023-04-17T09:09:55.907Z,2.00
2023-04-17T09:12:25.600Z,1.90
2023-04-17T09:14:54.216Z,2.30
2023-04-17T09:17:22.421Z,1.80
2023-04-17T09:20:12.370Z,2.30
2023-04-17T09:22:41.255Z,2.20
2023-04-17T09:25:23.417Z,2.70
2023-04-17T09:27:51.875Z,2.30
2023-04-17T09:30:27.994Z,2.30
2023-04-17T09:33:05.789Z,2.20
2023-04-17T09:35:37.068Z,2.50
2023-04-17T09:38:07.667Z,1.70
2023-04-17T09:40:40.939Z,2.00
2023-04-17T09:43:10.594Z,1.90
2023-04-17T09:45:42.682Z,2.20
2023-04-17T09:48:12.868Z,2.20
2023-04-17T09:50:41.343Z,2.20
2023-04-17T09:53:16.171Z,1.80
2023-04-17T09:55:45.168Z,1.90
2023-04-17T09:58:13.440Z,3.00
2023-04-17T10:00:42.020Z,1.80
2023-04-17T10:03:11.267Z,2.20
2023-04-17T10:05:40.214Z,2.10
2023-04-17T10:08:08.594Z,1.90
2023-04-17T10:10:37.793Z,2.10
2023-04-17T10:13:08.541Z,1.50
2023-04-17T10:15:38.756Z,1.70
2023-04-17T10:18:23.660Z,1.90
2023-04-17T10:20:54.022Z,1.70
2023-04-17T10:23:33.355Z,1.50
2023-04-17T10:26:25.672Z,2.40
2023-04-17T10:28:54.972Z,1.80
2023-04-17T10:31:24.855Z,1.90
2023-04-17T10:33:54.608Z,1.70
2023-04-17T10:36:48.837Z,2.10
2023-04-17T10:39:18.558Z,1.90
2023-04-17T10:42:06.395Z,2.10
2023-04-17T10:44:40.659Z,2.50
2023-04-17T10:49:51.513Z,1.60
2023-04-17T10:52:35.182Z,1.60
2023-04-17T10:55:16.453Z,1.80
2023-04-17T10:58:02.590Z,1.50
2023-04-17T11:00:38.235Z,1.70
2023-04-17T11:03:07.046Z,1.90
2023-04-17T11:05:36.209Z,1.60
2023-04-17T11:08:05.236Z,1.80
2023-04-17T11:10:35.962Z,1.50
2023-04-17T11:13:04.256Z,1.70
2023-04-17T11:15:37.258Z,1.60
2023-04-17T11:18:05.684Z,1.90
2023-04-17T11:20:37.266Z,1.80
2023-04-17T11:23:07.300Z,1.60
2023-04-17T11:25:36.075Z,1.30
2023-04-17T11:28:06.454Z,1.50
2023-04-17T11:30:36.371Z,1.30
2023-04-17T11:33:06.088Z,1.20
2023-04-17T11:35:39.519Z,1.40
2023-04-17T11:38:17.887Z,1.40
2023-04-17T11:40:59.225Z,1.50
2023-04-17T11:43:28.426Z,1.50
2023-04-17T11:46:01.837Z,1.80
2023-04-17T11:48:30.394Z,1.50
2023-04-17T11:51:03.441Z,1.40
2023-04-17T11:53:32.695Z,1.70
2023-04-17T11:56:17.057Z,1.40
2023-04-17T11:58:53.316Z,1.50
2023-04-17T12:01:26.601Z,1.40
2023-04-17T12:03:59.292Z,1.50
2023-04-17T12:06:37.282Z,1.40
2023-04-17T12:09:07.276Z,1.70
2023-04-17T12:11:36.146Z,1.20
2023-04-17T12:14:12.520Z,1.60
2023-04-17T12:16:41.466Z,1.30
2023-04-17T12:19:11.779Z,1.20
2023-04-17T12:21:40.053Z,1.20
2023-04-17T12:24:08.564Z,1.50
2023-04-17T12:26:37.221Z,1.40
2023-04-17T12:29:05.707Z,1.20
2023-04-17T12:31:35.427Z,1.30
2023-04-17T12:34:03.690Z,1.40
2023-04-17T12:36:33.039Z,1.30
2023-04-17T12:39:01.881Z,1.50
2023-04-17T12:41:30.572Z,1.40
2023-04-17T12:44:02.042Z,1.30
2023-04-17T12:46:30.906Z,1.50
2023-04-17T12:48:59.610Z,1.30
2023-04-17T12:51:32.584Z,1.30
2023-04-17T12:54:01.905Z,1.30
2023-04-17T12:56:30.575Z,1.30
2023-04-17T12:59:03.041Z,1.30
2023-04-17T13:01:31.795Z,1.40
2023-04-17T13:04:00.387Z,1.30
2023-04-17T13:06:28.904Z,1.40
2023-04-17T13:08:57.389Z,1.40
2023-04-17T13:11:26.792Z,1.70
2023-04-17T13:13:55.266Z,1.30
2023-04-17T13:16:23.775Z,1.40
2023-04-17T13:18:52.229Z,1.20
2023-04-17T13:21:20.608Z,1.50
2023-04-17T13:23:49.495Z,1.30
2023-04-17T13:26:18.184Z,1.50
2023-04-17T13:28:46.274Z,1.30
2023-04-17T13:31:14.883Z,1.50
2023-04-17T13:33:43.114Z,1.50
2023-04-17T13:36:11.497Z,2.00
2023-04-17T13:38:39.890Z,1.20
2023-04-17T13:41:08.163Z,1.20
2023-04-17T13:43:39.499Z,0.90
2023-04-17T13:48:40.150Z,0.90
2023-04-17T13:51:08.633Z,1.50
2023-04-17T13:53:37.003Z,1.10
2023-04-17T13:56:05.946Z,1.00
2023-04-17T13:58:34.923Z,0.90
2023-04-17T14:01:03.192Z,0.90
2023-04-17T14:03:32.504Z,1.30
2023-04-17T14:06:01.192Z,1.10
2023-04-17T14:08:29.568Z,0.80
2023-04-17T14:10:57.810Z,0.90
2023-04-17T14:13:25.991Z,1.30
2023-04-17T14:15:54.980Z,1.20
2023-04-17T14:18:24.941Z,1.20
2023-04-17T14:20:54.430Z,0.90
2023-04-17T14:23:22.764Z,1.00
2023-04-17T14:25:51.037Z,0.90
2023-04-17T14:28:21.250Z,1.10
2023-04-17T14:30:50.790Z,0.90
2023-04-17T14:33:18.959Z,1.10
2023-04-17T14:35:47.327Z,0.90
2023-04-17T14:38:15.714Z,0.90
2023-04-17T14:40:43.910Z,0.90
2023-04-17T14:43:12.335Z,1.20
2023-04-17T14:45:40.796Z,1.00
2023-04-17T14:48:09.156Z,1.20
2023-04-17T14:50:37.531Z,1.20
2023-04-17T14:53:05.912Z,1.10
2023-04-17T14:55:34.574Z,0.90
2023-04-17T14:58:03.795Z,1.00
2023-04-17T15:00:32.384Z,1.00
2023-04-17T15:03:01.215Z,1.00
2023-04-17T15:05:29.769Z,1.20
2023-04-17T15:07:58.146Z,1.00
2023-04-17T15:10:28.692Z,1.30
2023-04-17T15:13:00.628Z,1.00
2023-04-17T15:15:28.901Z,1.20
2023-04-17T15:17:57.824Z,1.00
2023-04-17T15:20:28.433Z,0.70
2023-04-17T15:22:56.805Z,1.20
2023-04-17T15:25:25.490Z,1.00
2023-04-17T15:27:54.808Z,0.90
2023-04-17T15:30:24.369Z,1.20
2023-04-17T15:32:52.832Z,0.70
2023-04-17T15:35:21.364Z,1.30
2023-04-17T15:37:49.771Z,1.00
2023-04-17T15:40:18.140Z,0.90
2023-04-17T15:42:46.810Z,0.90
2023-04-17T15:45:15.423Z,1.00
2023-04-17T15:47:43.893Z,1.30
2023-04-17T15:50:13.078Z,1.30
2023-04-17T15:52:41.564Z,1.20
2023-04-17T15:55:10.343Z,1.00
2023-04-17T15:57:39.329Z,0.80
2023-04-17T16:00:12.249Z,0.90
2023-04-17T16:02:41.072Z,1.10
2023-04-17T16:05:10.100Z,1.10
2023-04-17T16:07:38.686Z,1.10
2023-04-17T16:10:14.597Z,1.00
2023-04-17T16:12:43.758Z,1.30
2023-04-17T16:15:12.927Z,1.20
2023-04-17T16:17:42.144Z,1.10
2023-04-17T16:20:13.980Z,1.00
2023-04-17T16:22:42.881Z,1.30
2023-04-17T16:25:13.914Z,1.30
2023-04-17T16:27:42.139Z,1.10
2023-04-17T16:30:11.295Z,1.20
2023-04-17T16:32:40.019Z,1.10
2023-04-17T16:35:09.482Z,1.00
2023-04-17T16:37:37.756Z,1.00
2023-04-17T16:40:07.330Z,1.30
2023-04-17T16:42:36.157Z,1.20
2023-04-17T16:45:07.653Z,1.20
2023-04-17T16:47:36.455Z,1.10
2023-04-17T16:50:08.024Z,1.40
2023-04-17T16:52:39.409Z,1.20
2023-04-17T16:55:08.672Z,1.30
2023-04-17T16:57:38.557Z,1.10
2023-04-17T17:00:08.393Z,1.30
2023-04-17T17:02:37.309Z,1.20
2023-04-17T17:05:07.275Z,1.30
2023-04-17T17:07:36.034Z,1.10
2023-04-17T17:10:04.821Z,1.20
2023-04-17T17:12:32.985Z,1.30
2023-04-17T17:15:01.272Z,1.20
2023-04-17T17:17:30.325Z,1.50
2023-04-17T17:19:59.055Z,1.40
2023-04-17T17:22:30.715Z,1.20
2023-04-17T17:24:59.006Z,1.30
2023-04-17T17:27:27.252Z,1.40
2023-04-17T17:29:57.796Z,1.10
2023-04-17T17:34:55.682Z,1.20
2023-04-17T17:37:25.978Z,1.50
2023-04-17T17:39:55.517Z,1.30
2023-04-17T17:42:23.817Z,1.30
2023-04-17T17:44:52.092Z,1.30
2023-04-17T17:47:20.289Z,1.40
2023-04-17T17:49:49.873Z,1.40
2023-04-17T17:52:18.967Z,1.70
2023-04-17T17:54:48.169Z,1.80
2023-04-17T17:57:16.342Z,1.70
2023-04-17T17:59:45.690Z,2.30
2023-04-17T18:02:14.613Z,1.80
2023-04-17T18:04:43.252Z,1.50
2023-04-17T18:07:11.910Z,1.50
2023-04-17T18:09:40.094Z,1.90
2023-04-17T18:12:09.483Z,1.40
2023-04-17T18:14:37.873Z,1.40
2023-04-17T18:17:06.332Z,1.70
2023-04-17T18:19:41.114Z,2.00
2023-04-17T18:22:09.656Z,1.60
2023-04-17T18:24:40.293Z,1.60
2023-04-17T18:27:08.607Z,2.30
2023-04-17T18:29:36.883Z,2.20
2023-04-17T18:32:05.429Z,2.50
2023-04-17T18:34:34.323Z,2.60
2023-04-17T18:37:04.243Z,3.20
2023-04-17T18:39:34.445Z,3.20
2023-04-17T18:42:02.970Z,3.30
2023-04-17T18:44:31.632Z,3.20
2023-04-17T18:46:59.922Z,3.50
2023-04-17T18:49:28.401Z,3.60
2023-04-17T18:51:56.767Z,3.40
2023-04-17T18:54:24.954Z,3.70
2023-04-17T18:56:53.429Z,3.30
2023-04-17T18:59:21.731Z,3.50
2023-04-17T19:01:50.081Z,3.30
2023-04-17T19:04:19.283Z,3.70
2023-04-17T19:06:47.873Z,3.00
2023-04-17T19:09:16.140Z,3.10
2023-04-17T19:11:44.838Z,3.10
2023-04-17T19:14:13.103Z,2.50
2023-04-17T19:16:41.459Z,2.80
2023-04-17T19:19:11.470Z,2.20
2023-04-17T19:21:39.874Z,2.80
2023-04-17T19:24:08.875Z,2.30
2023-04-17T19:26:37.459Z,2.10
2023-04-17T19:29:07.804Z,2.20
2023-04-17T19:31:38.270Z,2.20
2023-04-17T19:34:08.738Z,2.10
2023-04-17T19:36:40.293Z,2.10
2023-04-17T19:39:08.581Z,2.20
2023-04-17T19:41:37.673Z,2.00
2023-04-17T19:44:06.047Z,2.20
2023-04-17T19:46:34.420Z,2.40
2023-04-17T19:49:02.723Z,2.20
2023-04-17T19:51:31.793Z,2.10
2023-04-17T19:53:59.982Z,2.20
2023-04-17T19:56:28.344Z,1.90
2023-04-17T19:59:06.170Z,2.30
2023-04-17T20:01:35.598Z,2.70
2023-04-17T20:04:04.108Z,3.00
2023-04-17T20:06:32.715Z,2.60
2023-04-17T20:09:03.140Z,2.50
2023-04-17T20:11:32.547Z,2.90
2023-04-17T20:14:00.859Z,2.70
2023-04-17T20:16:29.254Z,2.70
2023-04-17T20:18:57.994Z,2.70
2023-04-17T20:21:26.986Z,2.60
2023-04-17T20:23:55.569Z,2.10
2023-04-17T20:26:24.973Z,2.60
2023-04-17T20:28:57.058Z,2.30
2023-04-17T20:31:25.240Z,2.50
2023-04-17T20:33:54.928Z,2.80
2023-04-17T20:36:23.102Z,3.60
2023-04-17T20:38:51.789Z,3.40
2023-04-17T20:41:20.165Z,4.60
2023-04-17T20:44:10.325Z,4.40
2023-04-17T20:48:03.555Z,3.30
2023-04-17T20:50:32.008Z,3.00
2023-04-17T20:53:03.360Z,3.20
2023-04-17T20:55:33.665Z,3.60
2023-04-17T20:58:01.943Z,3.40
2023-04-17T21:00:30.408Z,3.40
2023-04-17T21:02:58.900Z,3.70
2023-04-17T21:05:27.687Z,2.90
2023-04-17T21:07:57.861Z,2.90
2023-04-17T21:10:26.282Z,3.00
2023-04-17T21:12:54.662Z,3.10
2023-04-17T21:15:22.937Z,3.50
2023-04-17T21:17:51.119Z,3.50
2023-04-17T21:20:19.289Z,3.50
2023-04-17T21:22:47.480Z,3.30
2023-04-17T21:25:15.636Z,2.80
2023-04-17T21:27:44.529Z,3.00
2023-04-17T21:30:13.012Z,2.80
2023-04-17T21:32:42.733Z,3.20
2023-04-17T21:35:11.819Z,3.40
2023-04-17T21:37:40.300Z,3.60
2023-04-17T21:40:09.294Z,2.90
2023-04-17T21:42:38.088Z,2.90
2023-04-17T21:45:07.048Z,3.10
2023-04-17T21:47:37.158Z,2.60
2023-04-17T21:50:08.166Z,2.90
2023-04-17T21:52:36.617Z,2.70
2023-04-17T21:55:07.916Z,2.50
2023-04-17T21:57:39.214Z,2.70
2023-04-17T22:00:12.680Z,3.00
2023-04-17T22:02:43.612Z,3.60
2023-04-17T22:05:12.777Z,3.50
2023-04-17T22:07:53.700Z,3.90
2023-04-17T22:10:25.244Z,3.30
2023-04-17T22:12:53.583Z,4.20
2023-04-17T22:15:21.865Z,3.40
2023-04-17T22:17:52.105Z,2.00
2023-04-17T22:20:20.354Z,2.30
2023-04-17T22:22:48.642Z,2.30
2023-04-17T22:25:19.381Z,2.30
2023-04-17T22:27:47.806Z,2.20
2023-04-17T22:30:16.746Z,1.90
2023-04-17T22:32:45.452Z,1.80
2023-04-17T22:35:13.907Z,2.10
2023-04-17T22:37:43.156Z,2.10
2023-04-17T22:40:14.752Z,2.00
2023-04-17T22:42:43.144Z,2.00
2023-04-17T22:45:12.469Z,1.80
2023-04-17T22:47:42.259Z,2.00
2023-04-17T22:50:12.786Z,1.90
2023-04-17T22:52:41.724Z,1.70
2023-04-17T22:55:11.180Z,1.90
2023-04-17T22:57:40.729Z,2.30
2023-04-17T23:00:10.425Z,1.90
2023-04-17T23:02:41.725Z,2.20
2023-04-17T23:05:09.952Z,1.80
2023-04-17T23:07:38.508Z,2.30
2023-04-17T23:10:07.595Z,1.90
2023-04-17T23:12:35.990Z,1.90
2023-04-17T23:15:04.932Z,2.00
2023-04-17T23:17:33.677Z,2.00
2023-04-17T23:20:01.862Z,2.20
2023-04-17T23:22:31.159Z,2.10
2023-04-17T23:25:02.787Z,1.70
2023-04-17T23:27:32.224Z,2.20
2023-04-17T23:30:00.493Z,2.00
2023-04-17T23:32:33.302Z,2.00
2023-04-17T23:35:01.685Z,2.00
2023-04-17T23:37:31.166Z,1.90
2023-04-17T23:40:01.491Z,2.20
2023-04-17T23:42:29.871Z,1.80
2023-04-17T23:44:58.162Z,1.70
2023-04-17T23:47:26.868Z,2.00
2023-04-17T23:49:55.533Z,2.20
2023-04-17T23:52:23.906Z,2.10
2023-04-17T23:54:53.072Z,2.00
2023-04-17T23:57:21.358Z,1.70
2023-04-17T23:59:49.624Z,2.30
